Terminal Aerodrome Forecast
Issued by NWS Bismarck, ND

Home | Current Version | Previous Version | Graphics & Text | Print | Product List | Glossary On
Versions: 1 2 3 4 5 6 7 8 9 10 11 12 13
665
FTUS43 KBIS 161730
TAFBIS
TAF
KBIS 161730Z 1618/1718 24006KT P6SM FEW300
     FM170500 24003KT P6SM SCT250
     FM171300 26005KT P6SM SCT120 WS020/30035KT
     FM171500 27007KT P6SM BKN120 WS020/30040KT=

USA.gov is the U.S. government's official web portal to all federal, state and local government web resources and services.